sensor_id;sensor_type;location;lat;lon;timestamp;temperature;humidity
3614;DHT22;1821;50.936;6.854;2023-03-01T00:00:06;0.70;99.90
3614;DHT22;1821;50.936;6.854;2023-03-01T00:00:48;0.30;99.90
3614;DHT22;1821;50.936;6.854;2023-03-01T00:01:31;0.30;1.00
3614;DHT22;1821;50.936;6.854;2023-03-01T00:02:13;0.40;1.00
3614;DHT22;1821;50.936;6.854;2023-03-01T00:02:55;0.80;1.00
3614;DHT22;1821;50.936;6.854;2023-03-01T00:03:37;0.40;1.00
3614;DHT22;1821;50.936;6.854;2023-03-01T00:04:19;0.40;1.00
3614;DHT22;1821;50.936;6.854;2023-03-01T00:05:01;0.40;1.00
3614;DHT22;1821;50.936;6.854;2023-03-01T00:05:46;0.50;1.00
3614;DHT22;1821;50.936;6.854;2023-03-01T00:06:28;0.20;1.00
3614;DHT22;1821;50.936;6.854;2023-03-01T00:07:11;0.20;1.00
3614;DHT22;1821;50.936;6.854;2023-03-01T00:07:53;0.20;1.00
3614;DHT22;1821;50.936;6.854;2023-03-01T00:08:35;0.10;1.00
3614;DHT22;1821;50.936;6.854;2023-03-01T00:09:17;0.20;1.00
3614;DHT22;1821;50.936;6.854;2023-03-01T00:09:59;0.30;1.00
3614;DHT22;1821;50.936;6.854;2023-03-01T00:10:41;0.20;1.00
3614;DHT22;1821;50.936;6.854;2023-03-01T00:11:26;0.30;1.00
3614;DHT22;1821;50.936;6.854;2023-03-01T00:12:08;0.60;1.00
3614;DHT22;1821;50.936;6.854;2023-03-01T00:12:53;0.40;99.90
3614;DHT22;1821;50.936;6.854;2023-03-01T00:13:35;0.40;99.90
3614;DHT22;1821;50.936;6.854;2023-03-01T00:14:17;1.10;1.00
3614;DHT22;1821;50.936;6.854;2023-03-01T00:14:59;0.50;1.00
3614;DHT22;1821;50.936;6.854;2023-03-01T00:15:41;0.90;99.90
3614;DHT22;1821;50.936;6.854;2023-03-01T00:16:26;0.30;99.90
3614;DHT22;1821;50.936;6.854;2023-03-01T00:17:08;0.40;99.90
3614;DHT22;1821;50.936;6.854;2023-03-01T00:17:50;0.50;99.90
3614;DHT22;1821;50.936;6.854;2023-03-01T00:18:34;0.40;99.90
3614;DHT22;1821;50.936;6.854;2023-03-01T00:19:18;2.90;99.90
3614;DHT22;1821;50.936;6.854;2023-03-01T00:20:03;0.40;99.90
3614;DHT22;1821;50.936;6.854;2023-03-01T00:20:52;0.40;99.90
3614;DHT22;1821;50.936;6.854;2023-03-01T00:21:34;0.40;99.90
3614;DHT22;1821;50.936;6.854;2023-03-01T00:22:16;0.70;99.90
3614;DHT22;1821;50.936;6.854;2023-03-01T00:22:58;0.20;99.90
3614;DHT22;1821;50.936;6.854;2023-03-01T00:23:40;0.60;1.00
3614;DHT22;1821;50.936;6.854;2023-03-01T00:24:22;0.60;99.90
3614;DHT22;1821;50.936;6.854;2023-03-01T00:25:05;0.40;99.90
3614;DHT22;1821;50.936;6.854;2023-03-01T00:25:46;0.60;99.90
3614;DHT22;1821;50.936;6.854;2023-03-01T00:26:29;0.40;99.90
3614;DHT22;1821;50.936;6.854;2023-03-01T00:27:11;0.30;99.90
3614;DHT22;1821;50.936;6.854;2023-03-01T00:27:53;0.40;99.90
3614;DHT22;1821;50.936;6.854;2023-03-01T00:28:37;0.40;99.90
3614;DHT22;1821;50.936;6.854;2023-03-01T00:29:19;0.30;99.90
3614;DHT22;1821;50.936;6.854;2023-03-01T00:30:00;0.40;99.90
3614;DHT22;1821;50.936;6.854;2023-03-01T00:30:42;0.40;99.90
3614;DHT22;1821;50.936;6.854;2023-03-01T00:31:27;0.40;99.90
3614;DHT22;1821;50.936;6.854;2023-03-01T00:32:10;0.30;99.90
3614;DHT22;1821;50.936;6.854;2023-03-01T00:32:52;0.40;99.90
3614;DHT22;1821;50.936;6.854;2023-03-01T00:33:34;0.40;99.90
3614;DHT22;1821;50.936;6.854;2023-03-01T00:34:16;0.30;99.90
3614;DHT22;1821;50.936;6.854;2023-03-01T00:34:58;0.40;99.90
3614;DHT22;1821;50.936;6.854;2023-03-01T00:35:42;0.40;1.00
3614;DHT22;1821;50.936;6.854;2023-03-01T00:36:29;0.30;99.90
3614;DHT22;1821;50.936;6.854;2023-03-01T00:37:12;0.70;99.90
3614;DHT22;1821;50.936;6.854;2023-03-01T00:37:54;0.50;99.90
3614;DHT22;1821;50.936;6.854;2023-03-01T00:38:41;0.60;99.90
3614;DHT22;1821;50.936;6.854;2023-03-01T00:39:23;0.40;99.90
3614;DHT22;1821;50.936;6.854;2023-03-01T00:40:06;2.80;1.00
3614;DHT22;1821;50.936;6.854;2023-03-01T00:40:48;0.70;99.90
3614;DHT22;1821;50.936;6.854;2023-03-01T00:41:30;0.50;1.00
3614;DHT22;1821;50.936;6.854;2023-03-01T00:42:12;0.90;99.90
3614;DHT22;1821;50.936;6.854;2023-03-01T00:42:55;0.30;99.90
3614;DHT22;1821;50.936;6.854;2023-03-01T00:43:39;0.20;99.90
3614;DHT22;1821;50.936;6.854;2023-03-01T00:44:21;0.60;99.90
3614;DHT22;1821;50.936;6.854;2023-03-01T00:45:03;0.70;99.90
3614;DHT22;1821;50.936;6.854;2023-03-01T00:45:45;0.40;99.90
3614;DHT22;1821;50.936;6.854;2023-03-01T00:46:28;0.20;99.90
3614;DHT22;1821;50.936;6.854;2023-03-01T00:47:12;0.40;99.90
3614;DHT22;1821;50.936;6.854;2023-03-01T00:47:54;0.40;99.90
3614;DHT22;1821;50.936;6.854;2023-03-01T00:48:36;0.70;1.00
3614;DHT22;1821;50.936;6.854;2023-03-01T00:49:18;0.60;1.00
3614;DHT22;1821;50.936;6.854;2023-03-01T00:50:03;0.20;1.00
3614;DHT22;1821;50.936;6.854;2023-03-01T00:50:47;0.20;1.00
3614;DHT22;1821;50.936;6.854;2023-03-01T00:51:30;0.20;1.00
3614;DHT22;1821;50.936;6.854;2023-03-01T00:52:12;0.60;1.00
3614;DHT22;1821;50.936;6.854;2023-03-01T00:52:55;0.10;1.00
3614;DHT22;1821;50.936;6.854;2023-03-01T00:53:38;0.20;1.00
3614;DHT22;1821;50.936;6.854;2023-03-01T00:54:20;0.00;1.00
3614;DHT22;1821;50.936;6.854;2023-03-01T00:55:02;0.10;1.00
3614;DHT22;1821;50.936;6.854;2023-03-01T00:55:44;0.00;1.00
3614;DHT22;1821;50.936;6.854;2023-03-01T00:56:26;0.40;1.00
3614;DHT22;1821;50.936;6.854;2023-03-01T00:57:11;0.00;1.00
3614;DHT22;1821;50.936;6.854;2023-03-01T00:57:53;-0.10;1.00
3614;DHT22;1821;50.936;6.854;2023-03-01T00:58:35;0.00;1.00
3614;DHT22;1821;50.936;6.854;2023-03-01T00:59:17;-0.50;1.00
3614;DHT22;1821;50.936;6.854;2023-03-01T00:59:59;0.00;1.00
3614;DHT22;1821;50.936;6.854;2023-03-01T01:00:41;-0.10;1.00
3614;DHT22;1821;50.936;6.854;2023-03-01T01:01:25;-0.20;1.00
3614;DHT22;1821;50.936;6.854;2023-03-01T01:02:09;-0.10;41.00
3614;DHT22;1821;50.936;6.854;2023-03-01T01:02:51;0.00;1.00
3614;DHT22;1821;50.936;6.854;2023-03-01T01:03:33;0.00;4.30
3614;DHT22;1821;50.936;6.854;2023-03-01T01:04:15;-0.10;90.40
3614;DHT22;1821;50.936;6.854;2023-03-01T01:04:57;-0.40;40.70
3614;DHT22;1821;50.936;6.854;2023-03-01T01:05:39;-0.10;64.40
3614;DHT22;1821;50.936;6.854;2023-03-01T01:06:29;-0.40;26.00
3614;DHT22;1821;50.936;6.854;2023-03-01T01:07:13;2.40;1.00
3614;DHT22;1821;50.936;6.854;2023-03-01T01:07:57;-0.10;17.00
3614;DHT22;1821;50.936;6.854;2023-03-01T01:08:39;-0.10;99.90
3614;DHT22;1821;50.936;6.854;2023-03-01T01:09:23;0.00;99.90
3614;DHT22;1821;50.936;6.854;2023-03-01T01:10:06;-0.20;99.90
3614;DHT22;1821;50.936;6.854;2023-03-01T01:10:50;0.00;99.90
3614;DHT22;1821;50.936;6.854;2023-03-01T01:11:32;0.00;99.90
3614;DHT22;1821;50.936;6.854;2023-03-01T01:12:14;0.20;99.90
3614;DHT22;1821;50.936;6.854;2023-03-01T01:12:56;0.10;99.90
3614;DHT22;1821;50.936;6.854;2023-03-01T01:13:40;-0.30;99.90
3614;DHT22;1821;50.936;6.854;2023-03-01T01:14:24;-0.20;99.90
3614;DHT22;1821;50.936;6.854;2023-03-01T01:15:07;-0.20;99.90
3614;DHT22;1821;50.936;6.854;2023-03-01T01:15:49;-0.10;99.90
3614;DHT22;1821;50.936;6.854;2023-03-01T01:16:31;-0.30;49.10
3614;DHT22;1821;50.936;6.854;2023-03-01T01:17:13;-0.10;49.50
3614;DHT22;1821;50.936;6.854;2023-03-01T01:17:57;0.10;32.30
3614;DHT22;1821;50.936;6.854;2023-03-01T01:18:39;-0.10;1.00
3614;DHT22;1821;50.936;6.854;2023-03-01T01:19:22;-0.10;49.00
3614;DHT22;1821;50.936;6.854;2023-03-01T01:20:05;0.00;99.90
3614;DHT22;1821;50.936;6.854;2023-03-01T01:20:47;0.00;99.90
3614;DHT22;1821;50.936;6.854;2023-03-01T01:21:29;0.10;99.90
3614;DHT22;1821;50.936;6.854;2023-03-01T01:22:13;0.10;99.90
3614;DHT22;1821;50.936;6.854;2023-03-01T01:22:57;-0.20;99.90
3614;DHT22;1821;50.936;6.854;2023-03-01T01:23:40;-0.30;99.90
3614;DHT22;1821;50.936;6.854;2023-03-01T01:24:22;-0.30;99.90
3614;DHT22;1821;50.936;6.854;2023-03-01T01:25:04;-0.40;99.90
3614;DHT22;1821;50.936;6.854;2023-03-01T01:25:46;-0.40;99.90
3614;DHT22;1821;50.936;6.854;2023-03-01T01:26:31;-0.20;99.90
3614;DHT22;1821;50.936;6.854;2023-03-01T01:27:13;-0.10;1.00
3614;DHT22;1821;50.936;6.854;2023-03-01T01:27:57;-0.20;1.00
3614;DHT22;1821;50.936;6.854;2023-03-01T01:28:39;-0.20;1.00
3614;DHT22;1821;50.936;6.854;2023-03-01T01:29:21;-0.40;1.00
3614;DHT22;1821;50.936;6.854;2023-03-01T01:30:04;-0.10;1.00
3614;DHT22;1821;50.936;6.854;2023-03-01T01:30:46;-0.10;99.90
3614;DHT22;1821;50.936;6.854;2023-03-01T01:31:29;-0.10;99.90
3614;DHT22;1821;50.936;6.854;2023-03-01T01:32:12;-0.50;99.90
3614;DHT22;1821;50.936;6.854;2023-03-01T01:32:53;-0.40;99.90
3614;DHT22;1821;50.936;6.854;2023-03-01T01:33:37;-0.20;99.90
3614;DHT22;1821;50.936;6.854;2023-03-01T01:34:20;-0.10;1.00
3614;DHT22;1821;50.936;6.854;2023-03-01T01:35:03;-0.30;1.00
3614;DHT22;1821;50.936;6.854;2023-03-01T01:35:46;-0.30;1.00
3614;DHT22;1821;50.936;6.854;2023-03-01T01:36:28;-0.20;1.00
3614;DHT22;1821;50.936;6.854;2023-03-01T01:37:13;3.00;1.00
3614;DHT22;1821;50.936;6.854;2023-03-01T01:37:58;0.10;1.00
3614;DHT22;1821;50.936;6.854;2023-03-01T01:38:40;-0.60;1.00
3614;DHT22;1821;50.936;6.854;2023-03-01T01:39:23;-0.20;1.00
3614;DHT22;1821;50.936;6.854;2023-03-01T01:40:09;-0.10;45.30
3614;DHT22;1821;50.936;6.854;2023-03-01T01:40:51;-0.40;7.70
3614;DHT22;1821;50.936;6.854;2023-03-01T01:41:33;-0.50;42.30
3614;DHT22;1821;50.936;6.854;2023-03-01T01:42:17;-0.30;37.70
3614;DHT22;1821;50.936;6.854;2023-03-01T01:42:59;0.20;99.90
3614;DHT22;1821;50.936;6.854;2023-03-01T01:43:47;-0.60;1.00
3614;DHT22;1821;50.936;6.854;2023-03-01T01:44:30;-0.10;1.00
3614;DHT22;1821;50.936;6.854;2023-03-01T01:47:16;-0.60;1.00
3614;DHT22;1821;50.936;6.854;2023-03-01T01:48:03;-0.80;99.90
3614;DHT22;1821;50.936;6.854;2023-03-01T01:49:02;-0.40;99.90
3614;DHT22;1821;50.936;6.854;2023-03-01T01:49:54;-0.50;1.00
3614;DHT22;1821;50.936;6.854;2023-03-01T01:50:40;-0.30;1.00
3614;DHT22;1821;50.936;6.854;2023-03-01T01:51:28;-0.40;1.00
3614;DHT22;1821;50.936;6.854;2023-03-01T01:52:38;-0.60;1.00
3614;DHT22;1821;50.936;6.854;2023-03-01T01:53:20;-0.70;1.00
3614;DHT22;1821;50.936;6.854;2023-03-01T01:54:03;-0.50;1.00
3614;DHT22;1821;50.936;6.854;2023-03-01T01:55:27;-0.50;1.00
3614;DHT22;1821;50.936;6.854;2023-03-01T01:56:11;0.10;47.50
3614;DHT22;1821;50.936;6.854;2023-03-01T01:57:00;-0.30;99.90
3614;DHT22;1821;50.936;6.854;2023-03-01T01:57:47;-0.50;99.90
3614;DHT22;1821;50.936;6.854;2023-03-01T01:58:30;1.60;99.90
3614;DHT22;1821;50.936;6.854;2023-03-01T01:59:12;-0.60;99.90
3614;DHT22;1821;50.936;6.854;2023-03-01T02:00:03;2.50;99.90
3614;DHT22;1821;50.936;6.854;2023-03-01T02:00:46;3.00;99.90
3614;DHT22;1821;50.936;6.854;2023-03-01T02:01:29;-0.60;99.90
3614;DHT22;1821;50.936;6.854;2023-03-01T02:02:13;-0.50;99.90
3614;DHT22;1821;50.936;6.854;2023-03-01T02:03:14;-0.70;99.90
3614;DHT22;1821;50.936;6.854;2023-03-01T02:03:59;-0.70;99.90
3614;DHT22;1821;50.936;6.854;2023-03-01T02:04:42;0.30;99.90
3614;DHT22;1821;50.936;6.854;2023-03-01T02:06:45;-0.80;1.00
3614;DHT22;1821;50.936;6.854;2023-03-01T02:07:32;-0.70;1.00
3614;DHT22;1821;50.936;6.854;2023-03-01T02:08:16;-0.20;99.90
3614;DHT22;1821;50.936;6.854;2023-03-01T02:09:00;2.30;1.00
3614;DHT22;1821;50.936;6.854;2023-03-01T02:09:47;-0.90;36.20
3614;DHT22;1821;50.936;6.854;2023-03-01T02:10:32;-0.50;99.90
3614;DHT22;1821;50.936;6.854;2023-03-01T02:11:17;-0.60;58.80
3614;DHT22;1821;50.936;6.854;2023-03-01T02:12:00;-0.80;1.00
3614;DHT22;1821;50.936;6.854;2023-03-01T02:12:42;-0.70;99.90
3614;DHT22;1821;50.936;6.854;2023-03-01T02:13:25;-0.70;99.90
3614;DHT22;1821;50.936;6.854;2023-03-01T02:14:07;-0.60;99.90
3614;DHT22;1821;50.936;6.854;2023-03-01T02:14:49;-0.60;99.90
3614;DHT22;1821;50.936;6.854;2023-03-01T02:15:34;-0.50;99.90
3614;DHT22;1821;50.936;6.854;2023-03-01T02:16:19;0.40;99.90
3614;DHT22;1821;50.936;6.854;2023-03-01T02:17:01;-0.60;99.90
3614;DHT22;1821;50.936;6.854;2023-03-01T02:17:43;-0.50;99.90
3614;DHT22;1821;50.936;6.854;2023-03-01T02:18:26;-0.70;99.90
3614;DHT22;1821;50.936;6.854;2023-03-01T02:19:12;-0.50;99.90
3614;DHT22;1821;50.936;6.854;2023-03-01T02:22:30;-0.30;1.00
3614;DHT22;1821;50.936;6.854;2023-03-01T02:23:12;-0.50;99.90
3614;DHT22;1821;50.936;6.854;2023-03-01T02:23:54;-0.80;99.90
3614;DHT22;1821;50.936;6.854;2023-03-01T02:25:36;-0.60;99.90
3614;DHT22;1821;50.936;6.854;2023-03-01T02:26:11;-0.70;99.90
3614;DHT22;1821;50.936;6.854;2023-03-01T02:26:56;-0.70;16.00
3614;DHT22;1821;50.936;6.854;2023-03-01T02:28:37;-0.80;99.90
3614;DHT22;1821;50.936;6.854;2023-03-01T02:29:20;0.00;99.90
3614;DHT22;1821;50.936;6.854;2023-03-01T02:30:02;-0.90;99.90
3614;DHT22;1821;50.936;6.854;2023-03-01T02:30:47;-0.60;99.90
3614;DHT22;1821;50.936;6.854;2023-03-01T02:31:48;-0.90;90.30
3614;DHT22;1821;50.936;6.854;2023-03-01T02:32:34;0.80;99.90
3614;DHT22;1821;50.936;6.854;2023-03-01T02:33:17;0.30;99.90
3614;DHT22;1821;50.936;6.854;2023-03-01T02:33:59;-0.90;99.90
3614;DHT22;1821;50.936;6.854;2023-03-01T02:34:42;0.10;99.90
3614;DHT22;1821;50.936;6.854;2023-03-01T02:35:24;-1.00;99.90
3614;DHT22;1821;50.936;6.854;2023-03-01T02:36:10;-1.00;99.90
3614;DHT22;1821;50.936;6.854;2023-03-01T02:37:02;0.50;99.90
3614;DHT22;1821;50.936;6.854;2023-03-01T02:37:48;-1.00;99.90
3614;DHT22;1821;50.936;6.854;2023-03-01T02:38:31;-0.80;1.00
3614;DHT22;1821;50.936;6.854;2023-03-01T02:39:33;0.00;1.00
3614;DHT22;1821;50.936;6.854;2023-03-01T02:40:17;-0.80;1.00
3614;DHT22;1821;50.936;6.854;2023-03-01T02:41:01;-1.00;1.00
3614;DHT22;1821;50.936;6.854;2023-03-01T02:41:51;-0.90;1.00
3614;DHT22;1821;50.936;6.854;2023-03-01T02:42:43;-0.80;1.00
3614;DHT22;1821;50.936;6.854;2023-03-01T02:43:31;-0.80;1.00
3614;DHT22;1821;50.936;6.854;2023-03-01T02:44:14;-0.50;1.00
3614;DHT22;1821;50.936;6.854;2023-03-01T02:44:56;-1.20;1.00
3614;DHT22;1821;50.936;6.854;2023-03-01T02:45:50;-0.50;1.00
3614;DHT22;1821;50.936;6.854;2023-03-01T02:46:32;-0.90;1.00
3614;DHT22;1821;50.936;6.854;2023-03-01T02:47:14;-0.80;1.00
3614;DHT22;1821;50.936;6.854;2023-03-01T02:47:59;-0.80;1.00
3614;DHT22;1821;50.936;6.854;2023-03-01T02:48:52;-0.90;1.00
3614;DHT22;1821;50.936;6.854;2023-03-01T02:49:36;-0.80;1.00
3614;DHT22;1821;50.936;6.854;2023-03-01T02:52:41;-0.70;1.00
3614;DHT22;1821;50.936;6.854;2023-03-01T02:53:39;-0.30;99.90
3614;DHT22;1821;50.936;6.854;2023-03-01T02:54:28;-0.90;99.90
3614;DHT22;1821;50.936;6.854;2023-03-01T02:55:14;-1.20;99.90
3614;DHT22;1821;50.936;6.854;2023-03-01T02:55:57;-1.10;99.90
3614;DHT22;1821;50.936;6.854;2023-03-01T02:56:41;-1.00;1.00
3614;DHT22;1821;50.936;6.854;2023-03-01T02:57:25;-1.20;1.00
3614;DHT22;1821;50.936;6.854;2023-03-01T02:58:09;-1.10;1.00
3614;DHT22;1821;50.936;6.854;2023-03-01T02:58:51;-1.00;53.80
3614;DHT22;1821;50.936;6.854;2023-03-01T02:59:35;-1.20;34.80
3614;DHT22;1821;50.936;6.854;2023-03-01T03:00:24;0.00;94.30
3614;DHT22;1821;50.936;6.854;2023-03-01T03:01:07;-1.00;99.90
3614;DHT22;1821;50.936;6.854;2023-03-01T03:01:51;2.40;99.90
3614;DHT22;1821;50.936;6.854;2023-03-01T03:02:33;-0.90;99.90
3614;DHT22;1821;50.936;6.854;2023-03-01T03:03:21;-1.00;1.00
3614;DHT22;1821;50.936;6.854;2023-03-01T03:04:08;-1.00;51.60
3614;DHT22;1821;50.936;6.854;2023-03-01T03:04:53;2.30;1.00
3614;DHT22;1821;50.936;6.854;2023-03-01T03:05:35;-1.20;1.00
3614;DHT22;1821;50.936;6.854;2023-03-01T03:06:17;-1.30;1.00
3614;DHT22;1821;50.936;6.854;2023-03-01T03:06:59;-1.20;1.00
3614;DHT22;1821;50.936;6.854;2023-03-01T03:07:43;-1.00;1.00
3614;DHT22;1821;50.936;6.854;2023-03-01T03:08:25;-1.10;1.00
3614;DHT22;1821;50.936;6.854;2023-03-01T03:09:07;-1.00;1.00
3614;DHT22;1821;50.936;6.854;2023-03-01T03:09:49;0.80;1.00
3614;DHT22;1821;50.936;6.854;2023-03-01T03:10:37;-0.90;1.00
3614;DHT22;1821;50.936;6.854;2023-03-01T03:11:19;-0.20;1.00
3614;DHT22;1821;50.936;6.854;2023-03-01T03:12:02;0.20;1.00
3614;DHT22;1821;50.936;6.854;2023-03-01T03:12:44;-1.30;27.50
3614;DHT22;1821;50.936;6.854;2023-03-01T03:13:29;-0.90;1.00
3614;DHT22;1821;50.936;6.854;2023-03-01T03:14:14;-1.30;1.00
3614;DHT22;1821;50.936;6.854;2023-03-01T03:14:58;-1.20;1.00
3614;DHT22;1821;50.936;6.854;2023-03-01T03:15:41;-1.30;1.00
3614;DHT22;1821;50.936;6.854;2023-03-01T03:16:23;-1.20;1.00
3614;DHT22;1821;50.936;6.854;2023-03-01T03:17:05;-1.40;1.00
3614;DHT22;1821;50.936;6.854;2023-03-01T03:17:49;-1.60;1.00
3614;DHT22;1821;50.936;6.854;2023-03-01T03:18:33;2.50;99.90
3614;DHT22;1821;50.936;6.854;2023-03-01T03:19:16;-1.10;1.00
3614;DHT22;1821;50.936;6.854;2023-03-01T03:20:00;-1.20;1.00
3614;DHT22;1821;50.936;6.854;2023-03-01T03:20:43;-1.20;1.00
3614;DHT22;1821;50.936;6.854;2023-03-01T03:21:26;-1.00;1.00
3614;DHT22;1821;50.936;6.854;2023-03-01T03:22:09;-1.40;1.00
3614;DHT22;1821;50.936;6.854;2023-03-01T03:22:55;-1.50;1.00
3614;DHT22;1821;50.936;6.854;2023-03-01T03:23:38;-1.30;99.90
3614;DHT22;1821;50.936;6.854;2023-03-01T03:24:20;0.10;99.90
3614;DHT22;1821;50.936;6.854;2023-03-01T03:25:02;-1.30;99.90
3614;DHT22;1821;50.936;6.854;2023-03-01T03:25:44;-1.40;99.90
3614;DHT22;1821;50.936;6.854;2023-03-01T03:26:28;-1.10;99.90
3614;DHT22;1821;50.936;6.854;2023-03-01T03:27:11;-1.60;99.90
3614;DHT22;1821;50.936;6.854;2023-03-01T03:27:53;-1.30;99.90
3614;DHT22;1821;50.936;6.854;2023-03-01T03:29:21;-1.30;99.90
3614;DHT22;1821;50.936;6.854;2023-03-01T03:30:05;-1.40;99.90
3614;DHT22;1821;50.936;6.854;2023-03-01T03:30:50;-1.30;1.00
3614;DHT22;1821;50.936;6.854;2023-03-01T03:32:14;-1.00;1.00
3614;DHT22;1821;50.936;6.854;2023-03-01T03:32:58;-1.20;1.00
3614;DHT22;1821;50.936;6.854;2023-03-01T03:33:40;-1.40;1.00
3614;DHT22;1821;50.936;6.854;2023-03-01T03:34:22;-1.40;1.00
3614;DHT22;1821;50.936;6.854;2023-03-01T03:35:06;-1.50;1.00
3614;DHT22;1821;50.936;6.854;2023-03-01T03:35:51;-1.30;1.00
3614;DHT22;1821;50.936;6.854;2023-03-01T03:36:33;-1.30;1.00
3614;DHT22;1821;50.936;6.854;2023-03-01T03:37:15;-1.50;1.00
3614;DHT22;1821;50.936;6.854;2023-03-01T03:38:17;-1.50;1.00
3614;DHT22;1821;50.936;6.854;2023-03-01T03:38:59;-1.60;93.90
3614;DHT22;1821;50.936;6.854;2023-03-01T03:39:43;-1.50;43.60
3614;DHT22;1821;50.936;6.854;2023-03-01T03:40:25;-1.30;99.90
3614;DHT22;1821;50.936;6.854;2023-03-01T03:41:10;-1.40;99.90
3614;DHT22;1821;50.936;6.854;2023-03-01T03:41:53;-1.60;99.90
3614;DHT22;1821;50.936;6.854;2023-03-01T03:42:35;-1.50;99.90
3614;DHT22;1821;50.936;6.854;2023-03-01T03:43:20;-1.00;99.90
3614;DHT22;1821;50.936;6.854;2023-03-01T03:44:03;0.30;99.90
3614;DHT22;1821;50.936;6.854;2023-03-01T03:44:44;-1.30;99.90
3614;DHT22;1821;50.936;6.854;2023-03-01T03:45:26;-1.00;99.90
3614;DHT22;1821;50.936;6.854;2023-03-01T03:46:10;-1.40;99.90
3614;DHT22;1821;50.936;6.854;2023-03-01T03:46:53;-1.10;99.90
3614;DHT22;1821;50.936;6.854;2023-03-01T03:47:34;-1.30;99.90
3614;DHT22;1821;50.936;6.854;2023-03-01T03:48:17;-1.10;99.90
3614;DHT22;1821;50.936;6.854;2023-03-01T03:48:59;0.10;99.90
3614;DHT22;1821;50.936;6.854;2023-03-01T03:49:43;-1.20;99.90
3614;DHT22;1821;50.936;6.854;2023-03-01T03:50:25;-1.20;99.90
3614;DHT22;1821;50.936;6.854;2023-03-01T03:51:09;-1.20;99.90
3614;DHT22;1821;50.936;6.854;2023-03-01T03:51:51;-1.20;1.00
3614;DHT22;1821;50.936;6.854;2023-03-01T03:52:33;-1.10;1.00
3614;DHT22;1821;50.936;6.854;2023-03-01T03:53:15;-1.10;1.00
3614;DHT22;1821;50.936;6.854;2023-03-01T03:53:58;-0.40;1.00
3614;DHT22;1821;50.936;6.854;2023-03-01T03:54:40;-1.20;1.00
3614;DHT22;1821;50.936;6.854;2023-03-01T03:55:23;-1.20;99.90
3614;DHT22;1821;50.936;6.854;2023-03-01T03:56:10;-1.30;99.90
3614;DHT22;1821;50.936;6.854;2023-03-01T03:56:54;-1.40;1.00
3614;DHT22;1821;50.936;6.854;2023-03-01T03:57:41;-1.20;99.90
3614;DHT22;1821;50.936;6.854;2023-03-01T03:58:26;-1.30;1.00
3614;DHT22;1821;50.936;6.854;2023-03-01T03:59:10;-1.30;1.00
3614;DHT22;1821;50.936;6.854;2023-03-01T03:59:53;-1.20;99.90
3614;DHT22;1821;50.936;6.854;2023-03-01T04:00:40;-2.30;99.90
3614;DHT22;1821;50.936;6.854;2023-03-01T04:01:24;-1.40;99.90
3614;DHT22;1821;50.936;6.854;2023-03-01T04:02:06;-1.20;99.90
3614;DHT22;1821;50.936;6.854;2023-03-01T04:02:50;-1.30;1.00
3614;DHT22;1821;50.936;6.854;2023-03-01T04:03:33;-1.20;1.00
3614;DHT22;1821;50.936;6.854;2023-03-01T04:04:18;-1.60;1.00
3614;DHT22;1821;50.936;6.854;2023-03-01T04:05:00;-1.20;1.00
3614;DHT22;1821;50.936;6.854;2023-03-01T04:05:44;-1.30;1.00
3614;DHT22;1821;50.936;6.854;2023-03-01T04:06:28;-1.20;1.00
3614;DHT22;1821;50.936;6.854;2023-03-01T04:07:10;-1.30;99.90
3614;DHT22;1821;50.936;6.854;2023-03-01T04:07:53;-1.40;99.90
3614;DHT22;1821;50.936;6.854;2023-03-01T04:08:42;-1.10;99.90
3614;DHT22;1821;50.936;6.854;2023-03-01T04:09:24;-1.70;99.90
3614;DHT22;1821;50.936;6.854;2023-03-01T04:10:12;-1.40;99.90
3614;DHT22;1821;50.936;6.854;2023-03-01T04:11:00;-1.60;99.90
3614;DHT22;1821;50.936;6.854;2023-03-01T04:12:02;-1.40;1.00
3614;DHT22;1821;50.936;6.854;2023-03-01T04:12:44;-1.20;1.00
3614;DHT22;1821;50.936;6.854;2023-03-01T04:13:26;-1.40;99.90
3614;DHT22;1821;50.936;6.854;2023-03-01T04:14:09;-1.60;99.90
3614;DHT22;1821;50.936;6.854;2023-03-01T04:14:53;-1.40;99.90
3614;DHT22;1821;50.936;6.854;2023-03-01T04:15:36;-1.60;99.90
3614;DHT22;1821;50.936;6.854;2023-03-01T04:16:19;-1.40;1.00
3614;DHT22;1821;50.936;6.854;2023-03-01T04:17:01;-1.40;1.00
3614;DHT22;1821;50.936;6.854;2023-03-01T04:17:46;-1.60;1.00
3614;DHT22;1821;50.936;6.854;2023-03-01T04:18:29;-1.30;1.00
3614;DHT22;1821;50.936;6.854;2023-03-01T04:19:10;-1.50;1.00
3614;DHT22;1821;50.936;6.854;2023-03-01T04:19:53;-1.70;1.00
3614;DHT22;1821;50.936;6.854;2023-03-01T04:20:35;-1.40;1.00
3614;DHT22;1821;50.936;6.854;2023-03-01T04:21:17;-1.40;1.00
3614;DHT22;1821;50.936;6.854;2023-03-01T04:22:03;-1.60;1.00
3614;DHT22;1821;50.936;6.854;2023-03-01T04:23:55;-1.40;1.00
3614;DHT22;1821;50.936;6.854;2023-03-01T04:24:38;-1.40;1.00
3614;DHT22;1821;50.936;6.854;2023-03-01T04:25:20;-1.50;1.00
3614;DHT22;1821;50.936;6.854;2023-03-01T04:26:03;-0.90;1.00
3614;DHT22;1821;50.936;6.854;2023-03-01T04:26:45;-1.50;1.00
3614;DHT22;1821;50.936;6.854;2023-03-01T04:27:27;-1.50;1.00
3614;DHT22;1821;50.936;6.854;2023-03-01T04:28:09;-1.40;1.00
3614;DHT22;1821;50.936;6.854;2023-03-01T04:28:54;-1.20;99.90
3614;DHT22;1821;50.936;6.854;2023-03-01T04:29:36;-1.40;1.00
3614;DHT22;1821;50.936;6.854;2023-03-01T04:30:18;-1.30;1.00
3614;DHT22;1821;50.936;6.854;2023-03-01T04:31:04;-1.30;99.90
3614;DHT22;1821;50.936;6.854;2023-03-01T04:31:55;-1.50;99.90
3614;DHT22;1821;50.936;6.854;2023-03-01T04:32:37;-1.30;99.90
3614;DHT22;1821;50.936;6.854;2023-03-01T04:33:19;-1.00;99.90
3614;DHT22;1821;50.936;6.854;2023-03-01T04:34:03;-1.40;1.00
3614;DHT22;1821;50.936;6.854;2023-03-01T04:34:45;-1.20;99.90
3614;DHT22;1821;50.936;6.854;2023-03-01T04:35:30;-1.60;1.00
3614;DHT22;1821;50.936;6.854;2023-03-01T04:36:15;-1.40;99.90
3614;DHT22;1821;50.936;6.854;2023-03-01T04:36:58;-3.60;1.00
3614;DHT22;1821;50.936;6.854;2023-03-01T04:37:40;-1.20;1.00
3614;DHT22;1821;50.936;6.854;2023-03-01T04:38:23;-1.40;99.90
3614;DHT22;1821;50.936;6.854;2023-03-01T04:39:05;-1.60;99.90
3614;DHT22;1821;50.936;6.854;2023-03-01T04:39:53;-1.30;99.90
3614;DHT22;1821;50.936;6.854;2023-03-01T04:40:36;-1.60;99.90
3614;DHT22;1821;50.936;6.854;2023-03-01T04:41:20;-1.60;1.00
3614;DHT22;1821;50.936;6.854;2023-03-01T04:42:03;-1.90;1.00
3614;DHT22;1821;50.936;6.854;2023-03-01T04:42:44;-1.50;1.00
3614;DHT22;1821;50.936;6.854;2023-03-01T04:43:29;-1.60;1.00
3614;DHT22;1821;50.936;6.854;2023-03-01T04:44:11;-1.60;1.00
3614;DHT22;1821;50.936;6.854;2023-03-01T04:44:53;-1.30;73.50
3614;DHT22;1821;50.936;6.854;2023-03-01T04:45:34;-1.50;99.90
3614;DHT22;1821;50.936;6.854;2023-03-01T04:46:20;-1.50;99.90
3614;DHT22;1821;50.936;6.854;2023-03-01T04:47:02;-1.50;99.90
3614;DHT22;1821;50.936;6.854;2023-03-01T04:47:46;-1.80;53.00
3614;DHT22;1821;50.936;6.854;2023-03-01T04:48:28;-1.80;99.90
3614;DHT22;1821;50.936;6.854;2023-03-01T04:49:10;-1.70;99.90
3614;DHT22;1821;50.936;6.854;2023-03-01T04:49:52;-1.60;99.90
3614;DHT22;1821;50.936;6.854;2023-03-01T04:50:34;-1.80;99.90
3614;DHT22;1821;50.936;6.854;2023-03-01T04:51:16;-1.30;99.90
3614;DHT22;1821;50.936;6.854;2023-03-01T04:52:00;-1.90;99.90
3614;DHT22;1821;50.936;6.854;2023-03-01T04:52:46;-1.70;99.90
3614;DHT22;1821;50.936;6.854;2023-03-01T04:53:29;1.00;99.90
3614;DHT22;1821;50.936;6.854;2023-03-01T04:54:13;-1.40;99.90
3614;DHT22;1821;50.936;6.854;2023-03-01T04:54:55;-1.50;1.00
3614;DHT22;1821;50.936;6.854;2023-03-01T04:55:37;-1.60;23.00
3614;DHT22;1821;50.936;6.854;2023-03-01T04:56:18;-2.00;81.90
3614;DHT22;1821;50.936;6.854;2023-03-01T04:57:01;-2.10;1.00
3614;DHT22;1821;50.936;6.854;2023-03-01T04:57:44;-1.60;1.00
3614;DHT22;1821;50.936;6.854;2023-03-01T04:58:27;-1.70;99.90
3614;DHT22;1821;50.936;6.854;2023-03-01T04:59:08;-1.00;1.00
3614;DHT22;1821;50.936;6.854;2023-03-01T04:59:51;-1.80;1.00
3614;DHT22;1821;50.936;6.854;2023-03-01T05:00:35;-1.90;1.00
3614;DHT22;1821;50.936;6.854;2023-03-01T05:01:20;-1.70;1.00
3614;DHT22;1821;50.936;6.854;2023-03-01T05:02:02;-1.60;99.90
3614;DHT22;1821;50.936;6.854;2023-03-01T05:02:45;-1.60;99.90